sensor_id;sensor_type;location;lat;lon;timestamp;pressure;altitude;pressure_sealevel;temperature;humidity
7748;BME280;3918;42.564;23.164;2024-01-15T05:02:56;-11650.84;;;-142.29;62.91
7748;BME280;3918;42.564;23.164;2024-01-15T05:05:24;-11650.84;;;-142.29;63.75
7748;BME280;3918;42.564;23.164;2024-01-15T05:07:51;-11650.84;;;-142.29;63.35
7748;BME280;3918;42.564;23.164;2024-01-15T05:10:18;-11650.84;;;-142.29;64.19
7748;BME280;3918;42.564;23.164;2024-01-15T05:12:44;-11650.84;;;-142.29;63.92
7748;BME280;3918;42.564;23.164;2024-01-15T05:15:11;-11650.84;;;-142.29;64.24
7748;BME280;3918;42.564;23.164;2024-01-15T05:17:38;-11650.84;;;-142.29;64.16
7748;BME280;3918;42.564;23.164;2024-01-15T05:20:07;-11650.84;;;-142.29;64.44
7748;BME280;3918;42.564;23.164;2024-01-15T05:22:34;-11650.84;;;-142.29;64.87
7748;BME280;3918;42.564;23.164;2024-01-15T05:25:01;-11650.84;;;-142.29;65.64
7748;BME280;3918;42.564;23.164;2024-01-15T05:27:28;-11650.84;;;-142.29;66.14
7748;BME280;3918;42.564;23.164;2024-01-15T05:29:54;-11650.84;;;-142.29;66.25
7748;BME280;3918;42.564;23.164;2024-01-15T05:32:21;-11650.84;;;-142.29;66.60
7748;BME280;3918;42.564;23.164;2024-01-15T05:34:48;-11650.84;;;-142.29;67.03
7748;BME280;3918;42.564;23.164;2024-01-15T05:37:16;-11650.84;;;-142.29;67.14
7748;BME280;3918;42.564;23.164;2024-01-15T05:39:43;-11650.84;;;-142.29;66.88
7748;BME280;3918;42.564;23.164;2024-01-15T05:42:10;-11650.84;;;-142.29;66.95
7748;BME280;3918;42.564;23.164;2024-01-15T05:44:36;-11650.84;;;-142.29;66.51
7748;BME280;3918;42.564;23.164;2024-01-15T05:47:04;-11650.84;;;-142.29;66.57
7748;BME280;3918;42.564;23.164;2024-01-15T05:49:30;-11650.84;;;-142.29;67.11
7748;BME280;3918;42.564;23.164;2024-01-15T05:51:57;-11650.84;;;-142.29;66.78
7748;BME280;3918;42.564;23.164;2024-01-15T05:54:25;-11650.84;;;-142.29;66.38
7748;BME280;3918;42.564;23.164;2024-01-15T05:56:52;-11650.84;;;-142.29;65.62
7748;BME280;3918;42.564;23.164;2024-01-15T05:59:19;-11650.84;;;-142.29;65.30
7748;BME280;3918;42.564;23.164;2024-01-15T06:01:46;-11650.84;;;-142.29;65.39
7748;BME280;3918;42.564;23.164;2024-01-15T06:04:12;-11650.84;;;-142.29;65.35
7748;BME280;3918;42.564;23.164;2024-01-15T06:06:39;-11650.84;;;-142.29;66.12
7748;BME280;3918;42.564;23.164;2024-01-15T06:09:06;-11650.84;;;-142.29;66.74
7748;BME280;3918;42.564;23.164;2024-01-15T06:11:35;-11650.84;;;-142.29;65.73
7748;BME280;3918;42.564;23.164;2024-01-15T06:14:02;-11650.84;;;-142.29;65.32
7748;BME280;3918;42.564;23.164;2024-01-15T06:16:29;-11650.84;;;-142.29;65.63
7748;BME280;3918;42.564;23.164;2024-01-15T06:18:56;-11650.84;;;-142.29;65.26
7748;BME280;3918;42.564;23.164;2024-01-15T06:21:23;-11650.84;;;-142.29;65.51
7748;BME280;3918;42.564;23.164;2024-01-15T06:23:49;-11650.84;;;-142.29;65.05
7748;BME280;3918;42.564;23.164;2024-01-15T06:26:16;-11650.84;;;-142.29;64.32
7748;BME280;3918;42.564;23.164;2024-01-15T06:28:44;-11650.84;;;-142.29;64.89
7748;BME280;3918;42.564;23.164;2024-01-15T06:31:11;-11650.84;;;-142.29;63.75
7748;BME280;3918;42.564;23.164;2024-01-15T06:33:38;-11650.84;;;-142.29;63.64
7748;BME280;3918;42.564;23.164;2024-01-15T06:36:06;-11650.84;;;-142.29;63.77
7748;BME280;3918;42.564;23.164;2024-01-15T06:38:33;-11650.84;;;-142.29;62.76
7748;BME280;3918;42.564;23.164;2024-01-15T06:41:00;-11650.84;;;-142.29;62.73
7748;BME280;3918;42.564;23.164;2024-01-15T06:43:31;-11650.84;;;-142.29;61.71
7748;BME280;3918;42.564;23.164;2024-01-15T06:45:59;-11650.84;;;-142.29;61.24
7748;BME280;3918;42.564;23.164;2024-01-15T06:48:26;-11650.84;;;-142.29;60.46
7748;BME280;3918;42.564;23.164;2024-01-15T06:50:53;-11650.84;;;-142.29;59.42
7748;BME280;3918;42.564;23.164;2024-01-15T06:53:19;-11650.84;;;-142.29;59.30
7748;BME280;3918;42.564;23.164;2024-01-15T06:55:46;-11650.84;;;-142.29;59.59
7748;BME280;3918;42.564;23.164;2024-01-15T06:58:14;-11650.84;;;-142.29;59.15
7748;BME280;3918;42.564;23.164;2024-01-15T07:00:41;-11650.84;;;-142.29;60.39
7748;BME280;3918;42.564;23.164;2024-01-15T07:03:09;-11650.84;;;-142.29;59.76
7748;BME280;3918;42.564;23.164;2024-01-15T07:05:36;-11650.84;;;-142.29;59.94
7748;BME280;3918;42.564;23.164;2024-01-15T07:08:04;-11650.84;;;-142.29;59.80
7748;BME280;3918;42.564;23.164;2024-01-15T07:10:31;-11650.84;;;-142.29;59.70
7748;BME280;3918;42.564;23.164;2024-01-15T07:12:57;-11650.84;;;-142.29;60.05
7748;BME280;3918;42.564;23.164;2024-01-15T07:15:24;-11650.84;;;-142.29;60.06
7748;BME280;3918;42.564;23.164;2024-01-15T07:17:51;-11650.84;;;-142.29;59.42
7748;BME280;3918;42.564;23.164;2024-01-15T07:20:19;-11650.84;;;-142.29;59.98
7748;BME280;3918;42.564;23.164;2024-01-15T07:22:46;-11650.84;;;-142.29;60.32
7748;BME280;3918;42.564;23.164;2024-01-15T07:25:13;-11650.84;;;-142.29;60.37
7748;BME280;3918;42.564;23.164;2024-01-15T07:27:40;-11650.84;;;-142.29;60.58
7748;BME280;3918;42.564;23.164;2024-01-15T07:30:10;-11650.84;;;-142.29;59.62
7748;BME280;3918;42.564;23.164;2024-01-15T07:32:37;-11650.84;;;-142.29;59.77
7748;BME280;3918;42.564;23.164;2024-01-15T07:35:04;-11650.84;;;-142.29;60.38
7748;BME280;3918;42.564;23.164;2024-01-15T07:37:33;-11650.84;;;-142.29;60.12
7748;BME280;3918;42.564;23.164;2024-01-15T07:39:59;-11650.84;;;-142.29;59.37
7748;BME280;3918;42.564;23.164;2024-01-15T07:42:27;-11650.84;;;-142.29;59.83
7748;BME280;3918;42.564;23.164;2024-01-15T07:44:54;-11650.84;;;-142.29;58.93
7748;BME280;3918;42.564;23.164;2024-01-15T07:47:21;-11650.84;;;-142.29;59.19
7748;BME280;3918;42.564;23.164;2024-01-15T07:49:49;-11650.84;;;-142.29;58.82
7748;BME280;3918;42.564;23.164;2024-01-15T07:52:16;-11650.84;;;-142.29;59.28
7748;BME280;3918;42.564;23.164;2024-01-15T07:54:44;-11650.84;;;-142.29;59.58
7748;BME280;3918;42.564;23.164;2024-01-15T07:57:11;-11650.84;;;-142.29;59.93
7748;BME280;3918;42.564;23.164;2024-01-15T07:59:38;-11650.84;;;-142.29;60.32
7748;BME280;3918;42.564;23.164;2024-01-15T08:02:06;-11650.84;;;-142.29;59.64
7748;BME280;3918;42.564;23.164;2024-01-15T08:04:33;-11650.84;;;-142.29;59.61
7748;BME280;3918;42.564;23.164;2024-01-15T08:07:00;-11650.84;;;-142.29;60.14
7748;BME280;3918;42.564;23.164;2024-01-15T08:09:28;-11650.84;;;-142.29;59.17
7748;BME280;3918;42.564;23.164;2024-01-15T08:11:56;-11650.84;;;-142.29;59.98
7748;BME280;3918;42.564;23.164;2024-01-15T08:14:24;-11650.84;;;-142.29;59.01
7748;BME280;3918;42.564;23.164;2024-01-15T08:16:51;-11650.84;;;-142.29;59.43
7748;BME280;3918;42.564;23.164;2024-01-15T08:19:18;-11650.84;;;-142.29;59.04
7748;BME280;3918;42.564;23.164;2024-01-15T08:21:45;-11650.84;;;-142.29;58.25
7748;BME280;3918;42.564;23.164;2024-01-15T08:24:12;-11650.84;;;-142.29;57.98
7748;BME280;3918;42.564;23.164;2024-01-15T08:26:38;-11650.84;;;-142.29;56.95
7748;BME280;3918;42.564;23.164;2024-01-15T08:29:07;-11650.84;;;-142.29;57.30
7748;BME280;3918;42.564;23.164;2024-01-15T08:31:33;-11650.84;;;-142.29;57.65
7748;BME280;3918;42.564;23.164;2024-01-15T08:34:00;-11650.84;;;-142.29;57.39
7748;BME280;3918;42.564;23.164;2024-01-15T08:36:27;-11650.84;;;-142.29;57.96
7748;BME280;3918;42.564;23.164;2024-01-15T08:38:54;-11650.84;;;-142.29;57.38
7748;BME280;3918;42.564;23.164;2024-01-15T08:41:21;-11650.84;;;-142.29;58.04
7748;BME280;3918;42.564;23.164;2024-01-15T08:43:48;-11650.84;;;-142.29;57.60
7748;BME280;3918;42.564;23.164;2024-01-15T08:46:17;-11650.84;;;-142.29;58.77
7748;BME280;3918;42.564;23.164;2024-01-15T08:48:45;-11650.84;;;-142.29;58.70
7748;BME280;3918;42.564;23.164;2024-01-15T08:51:12;-11650.84;;;-142.29;58.62
7748;BME280;3918;42.564;23.164;2024-01-15T08:53:39;-11650.84;;;-142.29;58.69
7748;BME280;3918;42.564;23.164;2024-01-15T08:56:06;-11650.84;;;-142.29;58.84
7748;BME280;3918;42.564;23.164;2024-01-15T08:58:34;-11650.84;;;-142.29;59.36
7748;BME280;3918;42.564;23.164;2024-01-15T09:01:01;-11650.84;;;-142.29;58.55
7748;BME280;3918;42.564;23.164;2024-01-15T09:03:30;-11650.84;;;-142.29;59.28
7748;BME280;3918;42.564;23.164;2024-01-15T09:05:57;-11650.84;;;-142.29;59.61
7748;BME280;3918;42.564;23.164;2024-01-15T09:08:24;-11650.84;;;-142.29;60.75
7748;BME280;3918;42.564;23.164;2024-01-15T09:10:52;-11650.84;;;-142.29;60.26
7748;BME280;3918;42.564;23.164;2024-01-15T09:13:19;-11650.84;;;-142.29;61.34
7748;BME280;3918;42.564;23.164;2024-01-15T09:15:46;-11650.84;;;-142.29;61.95
7748;BME280;3918;42.564;23.164;2024-01-15T09:18:13;-11650.84;;;-142.29;61.96
7748;BME280;3918;42.564;23.164;2024-01-15T09:20:41;-11650.84;;;-142.29;61.30
7748;BME280;3918;42.564;23.164;2024-01-15T09:23:07;-11650.84;;;-142.29;61.21
7748;BME280;3918;42.564;23.164;2024-01-15T09:25:34;-11650.84;;;-142.29;61.91
7748;BME280;3918;42.564;23.164;2024-01-15T09:28:01;-11650.84;;;-142.29;62.45
7748;BME280;3918;42.564;23.164;2024-01-15T09:30:28;-11650.84;;;-142.29;62.39
7748;BME280;3918;42.564;23.164;2024-01-15T09:32:54;-11650.84;;;-142.29;61.80
7748;BME280;3918;42.564;23.164;2024-01-15T09:35:22;-11650.84;;;-142.29;61.21
7748;BME280;3918;42.564;23.164;2024-01-15T09:37:50;-11650.84;;;-142.29;60.98
7748;BME280;3918;42.564;23.164;2024-01-15T09:40:17;-11650.84;;;-142.29;60.09
7748;BME280;3918;42.564;23.164;2024-01-15T09:42:47;-11650.84;;;-142.29;58.38
7748;BME280;3918;42.564;23.164;2024-01-15T09:45:14;-11650.84;;;-142.29;58.39
7748;BME280;3918;42.564;23.164;2024-01-15T09:47:41;-11650.84;;;-142.29;59.01
7748;BME280;3918;42.564;23.164;2024-01-15T09:50:09;-11650.84;;;-142.29;60.06
7748;BME280;3918;42.564;23.164;2024-01-15T09:52:36;-11650.84;;;-142.29;60.47
7748;BME280;3918;42.564;23.164;2024-01-15T09:55:04;-11650.84;;;-142.29;60.54
7748;BME280;3918;42.564;23.164;2024-01-15T09:57:32;-11650.84;;;-142.29;60.39
7748;BME280;3918;42.564;23.164;2024-01-15T10:00:02;-11650.84;;;-142.29;61.77
7748;BME280;3918;42.564;23.164;2024-01-15T10:02:30;-11650.84;;;-142.29;62.40
7748;BME280;3918;42.564;23.164;2024-01-15T10:04:57;-11650.84;;;-142.29;62.58
7748;BME280;3918;42.564;23.164;2024-01-15T10:07:25;-11650.84;;;-142.29;62.61
7748;BME280;3918;42.564;23.164;2024-01-15T10:09:53;-11650.84;;;-142.29;62.49
7748;BME280;3918;42.564;23.164;2024-01-15T10:12:22;-11650.84;;;-142.29;61.67
7748;BME280;3918;42.564;23.164;2024-01-15T10:14:50;-11650.84;;;-142.29;62.21
7748;BME280;3918;42.564;23.164;2024-01-15T10:17:17;-11650.84;;;-142.29;62.67
7748;BME280;3918;42.564;23.164;2024-01-15T10:19:45;-11650.84;;;-142.29;63.27
7748;BME280;3918;42.564;23.164;2024-01-15T10:22:13;-11650.84;;;-142.29;62.51
7748;BME280;3918;42.564;23.164;2024-01-15T10:24:40;-11650.84;;;-142.29;62.51
7748;BME280;3918;42.564;23.164;2024-01-15T10:27:08;-11650.84;;;-142.29;62.62
7748;BME280;3918;42.564;23.164;2024-01-15T10:29:36;-11650.84;;;-142.29;63.65
7748;BME280;3918;42.564;23.164;2024-01-15T10:32:06;-11650.84;;;-142.29;64.35
7748;BME280;3918;42.564;23.164;2024-01-15T10:34:33;-11650.84;;;-142.29;66.08
7748;BME280;3918;42.564;23.164;2024-01-15T10:37:04;-11650.84;;;-142.29;65.80
7748;BME280;3918;42.564;23.164;2024-01-15T10:39:31;-11650.84;;;-142.29;65.56
7748;BME280;3918;42.564;23.164;2024-01-15T10:41:58;-11650.84;;;-142.29;65.64
7748;BME280;3918;42.564;23.164;2024-01-15T10:44:25;-11650.84;;;-142.29;63.66
7748;BME280;3918;42.564;23.164;2024-01-15T10:46:54;-11650.84;;;-142.29;61.79
7748;BME280;3918;42.564;23.164;2024-01-15T10:49:21;-11650.84;;;-142.29;62.95
7748;BME280;3918;42.564;23.164;2024-01-15T10:51:52;-11650.84;;;-142.29;63.92
7748;BME280;3918;42.564;23.164;2024-01-15T10:54:19;-11650.84;;;-142.29;63.86
7748;BME280;3918;42.564;23.164;2024-01-15T10:56:49;-11650.84;;;-142.29;63.96
7748;BME280;3918;42.564;23.164;2024-01-15T10:59:16;-11650.84;;;-142.29;64.50
7748;BME280;3918;42.564;23.164;2024-01-15T11:01:44;-11650.84;;;-142.29;64.54
7748;BME280;3918;42.564;23.164;2024-01-15T11:04:13;-11650.84;;;-142.29;65.25
7748;BME280;3918;42.564;23.164;2024-01-15T11:06:42;-11650.84;;;-142.29;64.66
7748;BME280;3918;42.564;23.164;2024-01-15T11:09:09;-11650.84;;;-142.29;64.00
7748;BME280;3918;42.564;23.164;2024-01-15T11:11:40;-11650.84;;;-142.29;64.53
7748;BME280;3918;42.564;23.164;2024-01-15T11:14:07;-11650.84;;;-142.29;64.12
7748;BME280;3918;42.564;23.164;2024-01-15T11:16:56;-11650.84;;;-142.29;63.77
7748;BME280;3918;42.564;23.164;2024-01-15T11:19:26;-11650.84;;;-142.29;63.80
7748;BME280;3918;42.564;23.164;2024-01-15T11:22:02;-11650.84;;;-142.29;64.44
7748;BME280;3918;42.564;23.164;2024-01-15T11:24:35;-11650.84;;;-142.29;64.26
7748;BME280;3918;42.564;23.164;2024-01-15T11:27:03;-11650.84;;;-142.29;64.69
7748;BME280;3918;42.564;23.164;2024-01-15T11:29:31;-11650.84;;;-142.29;66.30
7748;BME280;3918;42.564;23.164;2024-01-15T11:32:03;-11650.84;;;-142.29;64.84
7748;BME280;3918;42.564;23.164;2024-01-15T11:35:01;-11650.84;;;-142.29;65.41
7748;BME280;3918;42.564;23.164;2024-01-15T11:37:29;-11650.84;;;-142.29;65.70
7748;BME280;3918;42.564;23.164;2024-01-15T11:40:18;-11650.84;;;-142.29;66.28
7748;BME280;3918;42.564;23.164;2024-01-15T11:42:45;-11650.84;;;-142.29;66.57
7748;BME280;3918;42.564;23.164;2024-01-15T11:45:13;-11650.84;;;-142.29;67.44
7748;BME280;3918;42.564;23.164;2024-01-15T11:48:09;-11650.84;;;-142.29;68.66
7748;BME280;3918;42.564;23.164;2024-01-15T11:50:39;-11650.84;;;-142.29;68.51
7748;BME280;3918;42.564;23.164;2024-01-15T11:53:21;-11650.84;;;-142.29;68.50
7748;BME280;3918;42.564;23.164;2024-01-15T11:55:51;-11650.84;;;-142.29;69.03
7748;BME280;3918;42.564;23.164;2024-01-15T11:58:18;-11650.84;;;-142.29;69.54
7748;BME280;3918;42.564;23.164;2024-01-15T12:00:47;-11650.84;;;-142.29;70.20
7748;BME280;3918;42.564;23.164;2024-01-15T12:03:15;-11650.84;;;-142.29;70.02
7748;BME280;3918;42.564;23.164;2024-01-15T12:05:43;-11650.84;;;-142.29;70.96
7748;BME280;3918;42.564;23.164;2024-01-15T12:08:10;-11650.84;;;-142.29;70.18
7748;BME280;3918;42.564;23.164;2024-01-15T12:10:37;-11650.84;;;-142.29;71.62
7748;BME280;3918;42.564;23.164;2024-01-15T12:13:10;-11650.84;;;-142.29;70.41
7748;BME280;3918;42.564;23.164;2024-01-15T12:15:37;-11650.84;;;-142.29;71.00
7748;BME280;3918;42.564;23.164;2024-01-15T12:18:07;-11650.84;;;-142.29;70.39
7748;BME280;3918;42.564;23.164;2024-01-15T12:20:35;-11650.84;;;-142.29;69.71
7748;BME280;3918;42.564;23.164;2024-01-15T12:23:03;-11650.84;;;-142.29;70.26
7748;BME280;3918;42.564;23.164;2024-01-15T12:25:31;-11650.84;;;-142.29;70.64
7748;BME280;3918;42.564;23.164;2024-01-15T12:27:59;-11650.84;;;-142.29;69.94
7748;BME280;3918;42.564;23.164;2024-01-15T12:30:26;-11650.84;;;-142.29;71.53
7748;BME280;3918;42.564;23.164;2024-01-15T12:32:54;-11650.84;;;-142.29;72.78
7748;BME280;3918;42.564;23.164;2024-01-15T12:35:21;-11650.84;;;-142.29;71.88
7748;BME280;3918;42.564;23.164;2024-01-15T12:37:48;-11650.84;;;-142.29;70.80
7748;BME280;3918;42.564;23.164;2024-01-15T12:40:19;-11650.84;;;-142.29;71.61
7748;BME280;3918;42.564;23.164;2024-01-15T12:42:46;-11650.84;;;-142.29;71.28
7748;BME280;3918;42.564;23.164;2024-01-15T12:45:13;-11650.84;;;-142.29;71.02
7748;BME280;3918;42.564;23.164;2024-01-15T12:47:41;-11650.84;;;-142.29;72.39
7748;BME280;3918;42.564;23.164;2024-01-15T12:50:10;-11650.84;;;-142.29;71.49
7748;BME280;3918;42.564;23.164;2024-01-15T12:52:39;-11650.84;;;-142.29;71.86
7748;BME280;3918;42.564;23.164;2024-01-15T12:55:07;-11650.84;;;-142.29;72.21
7748;BME280;3918;42.564;23.164;2024-01-15T12:57:36;-11650.84;;;-142.29;72.87
7748;BME280;3918;42.564;23.164;2024-01-15T13:00:04;-11650.84;;;-142.29;72.79
7748;BME280;3918;42.564;23.164;2024-01-15T13:02:33;-11650.84;;;-142.29;72.72
7748;BME280;3918;42.564;23.164;2024-01-15T13:05:00;-11650.84;;;-142.29;73.38
7748;BME280;3918;42.564;23.164;2024-01-15T13:07:30;-11650.84;;;-142.29;73.81
7748;BME280;3918;42.564;23.164;2024-01-15T13:09:57;-11650.84;;;-142.29;74.54
7748;BME280;3918;42.564;23.164;2024-01-15T13:12:24;-11650.84;;;-142.29;74.67
7748;BME280;3918;42.564;23.164;2024-01-15T13:14:52;-11650.84;;;-142.29;75.00
7748;BME280;3918;42.564;23.164;2024-01-15T13:17:19;-11650.84;;;-142.29;74.57
7748;BME280;3918;42.564;23.164;2024-01-15T13:19:47;-11650.84;;;-142.29;75.65
7748;BME280;3918;42.564;23.164;2024-01-15T13:22:14;-11650.84;;;-142.29;75.54
7748;BME280;3918;42.564;23.164;2024-01-15T13:24:41;-11650.84;;;-142.29;76.08
7748;BME280;3918;42.564;23.164;2024-01-15T13:27:08;-11650.84;;;-142.29;77.09
7748;BME280;3918;42.564;23.164;2024-01-15T13:29:35;-11650.84;;;-142.29;77.36
7748;BME280;3918;42.564;23.164;2024-01-15T13:32:03;-11650.84;;;-142.29;77.64
7748;BME280;3918;42.564;23.164;2024-01-15T13:34:31;-11650.84;;;-142.29;77.71
7748;BME280;3918;42.564;23.164;2024-01-15T13:36:58;-11650.84;;;-142.29;78.42
7748;BME280;3918;42.564;23.164;2024-01-15T13:39:25;-11650.84;;;-142.29;78.50
7748;BME280;3918;42.564;23.164;2024-01-15T13:41:51;-11650.84;;;-142.29;77.85
7748;BME280;3918;42.564;23.164;2024-01-15T13:44:18;-11650.84;;;-142.29;78.14
7748;BME280;3918;42.564;23.164;2024-01-15T13:46:45;-11650.84;;;-142.29;78.58
7748;BME280;3918;42.564;23.164;2024-01-15T13:49:13;-11650.84;;;-142.29;79.07
7748;BME280;3918;42.564;23.164;2024-01-15T13:51:40;-11650.84;;;-142.29;78.55
7748;BME280;3918;42.564;23.164;2024-01-15T13:54:07;-11650.84;;;-142.29;79.21
7748;BME280;3918;42.564;23.164;2024-01-15T13:56:34;-11650.84;;;-142.29;79.60
7748;BME280;3918;42.564;23.164;2024-01-15T13:59:01;-11650.84;;;-142.29;80.15
7748;BME280;3918;42.564;23.164;2024-01-15T14:01:30;-11650.84;;;-142.29;79.32
7748;BME280;3918;42.564;23.164;2024-01-15T14:03:58;-11650.84;;;-142.29;80.24
7748;BME280;3918;42.564;23.164;2024-01-15T14:06:26;-11650.84;;;-142.29;79.44
7748;BME280;3918;42.564;23.164;2024-01-15T14:08:53;-11650.84;;;-142.29;79.77
7748;BME280;3918;42.564;23.164;2024-01-15T14:11:20;-11650.84;;;-142.29;79.49
7748;BME280;3918;42.564;23.164;2024-01-15T14:13:48;-11650.84;;;-142.29;79.61
7748;BME280;3918;42.564;23.164;2024-01-15T14:16:15;-11650.84;;;-142.29;79.77
7748;BME280;3918;42.564;23.164;2024-01-15T14:18:41;-11650.84;;;-142.29;80.05
7748;BME280;3918;42.564;23.164;2024-01-15T14:21:08;-11650.84;;;-142.29;79.89
7748;BME280;3918;42.564;23.164;2024-01-15T14:23:37;-11650.84;;;-142.29;79.15
7748;BME280;3918;42.564;23.164;2024-01-15T14:26:04;-11650.84;;;-142.29;79.14
7748;BME280;3918;42.564;23.164;2024-01-15T14:28:30;-11650.84;;;-142.29;79.20
7748;BME280;3918;42.564;23.164;2024-01-15T14:30:57;-11650.84;;;-142.29;79.06
7748;BME280;3918;42.564;23.164;2024-01-15T14:33:25;-11650.84;;;-142.29;78.53
7748;BME280;3918;42.564;23.164;2024-01-15T14:35:52;-11650.84;;;-142.29;78.38
7748;BME280;3918;42.564;23.164;2024-01-15T14:38:19;-11650.84;;;-142.29;79.03
7748;BME280;3918;42.564;23.164;2024-01-15T14:40:47;-11650.84;;;-142.29;77.82
7748;BME280;3918;42.564;23.164;2024-01-15T14:43:14;-11650.84;;;-142.29;77.91
7748;BME280;3918;42.564;23.164;2024-01-15T14:45:41;-11650.84;;;-142.29;78.15
7748;BME280;3918;42.564;23.164;2024-01-15T14:48:09;-11650.84;;;-142.29;78.47
7748;BME280;3918;42.564;23.164;2024-01-15T14:50:35;-11650.84;;;-142.29;77.57
7748;BME280;3918;42.564;23.164;2024-01-15T14:53:02;-11650.84;;;-142.29;78.33
7748;BME280;3918;42.564;23.164;2024-01-15T14:55:29;-11650.84;;;-142.29;78.23
7748;BME280;3918;42.564;23.164;2024-01-15T14:57:59;-11650.84;;;-142.29;77.48
7748;BME280;3918;42.564;23.164;2024-01-15T15:00:25;-11650.84;;;-142.29;77.47
7748;BME280;3918;42.564;23.164;2024-01-15T15:02:52;-11650.84;;;-142.29;77.50
7748;BME280;3918;42.564;23.164;2024-01-15T15:05:19;-11650.84;;;-142.29;78.37
7748;BME280;3918;42.564;23.164;2024-01-15T15:07:46;-11650.84;;;-142.29;77.01
7748;BME280;3918;42.564;23.164;2024-01-15T15:10:13;-11650.84;;;-142.29;77.42
7748;BME280;3918;42.564;23.164;2024-01-15T15:12:40;-11650.84;;;-142.29;78.27
7748;BME280;3918;42.564;23.164;2024-01-15T15:15:09;-11650.84;;;-142.29;77.61
7748;BME280;3918;42.564;23.164;2024-01-15T15:17:37;-11650.84;;;-142.29;77.65
7748;BME280;3918;42.564;23.164;2024-01-15T15:20:05;-11650.84;;;-142.29;77.60
7748;BME280;3918;42.564;23.164;2024-01-15T15:22:32;-11650.84;;;-142.29;78.75
7748;BME280;3918;42.564;23.164;2024-01-15T15:24:58;-11650.84;;;-142.29;78.63
7748;BME280;3918;42.564;23.164;2024-01-15T15:27:25;-11650.84;;;-142.29;78.70
7748;BME280;3918;42.564;23.164;2024-01-15T15:29:52;-11650.84;;;-142.29;78.10
7748;BME280;3918;42.564;23.164;2024-01-15T15:32:20;-11650.84;;;-142.29;79.21
7748;BME280;3918;42.564;23.164;2024-01-15T15:34:47;-11650.84;;;-142.29;80.40
7748;BME280;3918;42.564;23.164;2024-01-15T15:37:14;-11650.84;;;-142.29;80.40
7748;BME280;3918;42.564;23.164;2024-01-15T15:39:42;-11650.84;;;-142.29;80.42
7748;BME280;3918;42.564;23.164;2024-01-15T15:42:09;-11650.84;;;-142.29;80.84
7748;BME280;3918;42.564;23.164;2024-01-15T15:44:36;-11650.84;;;-142.29;81.34
7748;BME280;3918;42.564;23.164;2024-01-15T15:47:08;-11650.84;;;-142.29;81.30
7748;BME280;3918;42.564;23.164;2024-01-15T15:49:37;-11650.84;;;-142.29;80.96
7748;BME280;3918;42.564;23.164;2024-01-15T15:52:03;-11650.84;;;-142.29;80.56
7748;BME280;3918;42.564;23.164;2024-01-15T15:54:30;-11650.84;;;-142.29;79.47
7748;BME280;3918;42.564;23.164;2024-01-15T15:56:57;-11650.84;;;-142.29;79.79
7748;BME280;3918;42.564;23.164;2024-01-15T15:59:24;-11650.84;;;-142.29;80.00
7748;BME280;3918;42.564;23.164;2024-01-15T16:01:51;-11650.84;;;-142.29;80.00
7748;BME280;3918;42.564;23.164;2024-01-15T16:04:18;-11650.84;;;-142.29;80.88
7748;BME280;3918;42.564;23.164;2024-01-15T16:06:46;-11650.84;;;-142.29;80.79
7748;BME280;3918;42.564;23.164;2024-01-15T16:09:13;-11650.84;;;-142.29;79.10
7748;BME280;3918;42.564;23.164;2024-01-15T16:11:40;-11650.84;;;-142.29;80.16
7748;BME280;3918;42.564;23.164;2024-01-15T16:14:07;-11650.84;;;-142.29;80.62
7748;BME280;3918;42.564;23.164;2024-01-15T16:16:35;-11650.84;;;-142.29;79.72
7748;BME280;3918;42.564;23.164;2024-01-15T16:19:01;-11650.84;;;-142.29;81.38
7748;BME280;3918;42.564;23.164;2024-01-15T16:21:29;-11650.84;;;-142.29;81.49
7748;BME280;3918;42.564;23.164;2024-01-15T16:23:57;-11650.84;;;-142.29;81.35
7748;BME280;3918;42.564;23.164;2024-01-15T16:26:24;-11650.84;;;-142.29;81.66
7748;BME280;3918;42.564;23.164;2024-01-15T16:28:51;-11650.84;;;-142.29;81.53
7748;BME280;3918;42.564;23.164;2024-01-15T16:31:18;-11650.84;;;-142.29;81.94
7748;BME280;3918;42.564;23.164;2024-01-15T16:33:45;-11650.84;;;-142.29;82.29
7748;BME280;3918;42.564;23.164;2024-01-15T16:36:12;-11650.84;;;-142.29;82.40
7748;BME280;3918;42.564;23.164;2024-01-15T16:38:39;-11650.84;;;-142.29;82.71
7748;BME280;3918;42.564;23.164;2024-01-15T16:41:07;-11650.84;;;-142.29;83.13
7748;BME280;3918;42.564;23.164;2024-01-15T16:43:34;-11650.84;;;-142.29;83.07
7748;BME280;3918;42.564;23.164;2024-01-15T16:46:02;-11650.84;;;-142.29;83.59
7748;BME280;3918;42.564;23.164;2024-01-15T16:48:35;-11650.84;;;-142.29;83.67
7748;BME280;3918;42.564;23.164;2024-01-15T16:51:05;-11650.84;;;-142.29;83.56
7748;BME280;3918;42.564;23.164;2024-01-15T16:53:31;-11650.84;;;-142.29;84.49
7748;BME280;3918;42.564;23.164;2024-01-15T16:56:01;-11650.84;;;-142.29;85.00
7748;BME280;3918;42.564;23.164;2024-01-15T16:58:31;-11650.84;;;-142.29;85.88
7748;BME280;3918;42.564;23.164;2024-01-15T17:00:58;-11650.84;;;-142.29;85.11
7748;BME280;3918;42.564;23.164;2024-01-15T17:03:25;-11650.84;;;-142.29;85.48
7748;BME280;3918;42.564;23.164;2024-01-15T17:05:54;-11650.84;;;-142.29;84.36
7748;BME280;3918;42.564;23.164;2024-01-15T17:08:21;-11650.84;;;-142.29;86.05
7748;BME280;3918;42.564;23.164;2024-01-15T17:10:48;-11650.84;;;-142.29;85.17
7748;BME280;3918;42.564;23.164;2024-01-15T17:13:14;-11650.84;;;-142.29;85.02
7748;BME280;3918;42.564;23.164;2024-01-15T17:15:42;-11650.84;;;-142.29;85.81
7748;BME280;3918;42.564;23.164;2024-01-15T17:18:09;-11650.84;;;-142.29;85.57
7748;BME280;3918;42.564;23.164;2024-01-15T17:20:36;-11650.84;;;-142.29;85.50
7748;BME280;3918;42.564;23.164;2024-01-15T17:23:05;-11650.84;;;-142.29;85.85
7748;BME280;3918;42.564;23.164;2024-01-15T17:25:32;-11650.84;;;-142.29;86.14
7748;BME280;3918;42.564;23.164;2024-01-15T17:27:59;-11650.84;;;-142.29;86.68
7748;BME280;3918;42.564;23.164;2024-01-15T17:30:26;-11650.84;;;-142.29;86.22
7748;BME280;3918;42.564;23.164;2024-01-15T17:32:54;-11650.84;;;-142.29;86.85
7748;BME280;3918;42.564;23.164;2024-01-15T17:35:21;-11650.84;;;-142.29;86.28
7748;BME280;3918;42.564;23.164;2024-01-15T17:37:49;-11650.84;;;-142.29;87.30
7748;BME280;3918;42.564;23.164;2024-01-15T17:40:15;-11650.84;;;-142.29;87.93
7748;BME280;3918;42.564;23.164;2024-01-15T17:42:42;-11650.84;;;-142.29;86.96
7748;BME280;3918;42.564;23.164;2024-01-15T17:45:11;-11650.84;;;-142.29;86.25